Time;durP1;ratioP1;P1;durP2;ratioP2;P2;SDS_P1;SDS_P2;PMS_P1;PMS_P2;Temp;Humidity;BMP_temperature;BMP_pressure;BME280_temperature;BME280_humidity;BME280_pressure;Samples;Min_cycle;Max_cycle;Signal;HPM_P1;HPM_P2
2023/03/10 00:00:25;;;;;;;47.45;27.55;;;;;;;11.59;65.33;98644.94;5070606;28;20062;-73
2023/03/10 00:02:51;;;;;;;49.25;27.92;;;;;;;11.73;64.73;98657.66;5072832;28;20525;-74
2023/03/10 00:05:18;;;;;;;50.30;29.42;;;;;;;11.84;64.43;98652.31;5087987;28;20035;-74
2023/03/10 00:07:44;;;;;;;46.58;28.95;;;;;;;11.84;64.16;98649.50;5092803;28;20035;-73
2023/03/10 00:10:12;;;;;;;55.45;32.67;;;;;;;11.91;64.28;98647.69;5080054;28;20430;-73
2023/03/10 00:12:37;;;;;;;52.75;32.28;;;;;;;11.97;63.51;98641.81;5063736;28;20040;-73
2023/03/10 00:15:04;;;;;;;49.80;29.95;;;;;;;11.95;63.40;98630.94;5052536;28;20052;-74
2023/03/10 00:17:30;;;;;;;97.45;57.17;;;;;;;11.54;64.66;98636.00;5051157;28;20021;-73
2023/03/10 00:19:55;;;;;;;74.13;42.42;;;;;;;11.43;64.37;98622.53;5052449;28;20036;-74
2023/03/10 00:22:21;;;;;;;53.65;33.42;;;;;;;11.37;64.66;98626.75;5052468;28;20549;-74
2023/03/10 00:24:46;;;;;;;46.55;28.77;;;;;;;11.34;64.61;98633.91;5051607;28;20025;-73
2023/03/10 00:27:12;;;;;;;44.58;27.17;;;;;;;11.27;64.88;98632.88;5065095;28;20032;-73
2023/03/10 00:29:37;;;;;;;51.05;27.70;;;;;;;11.20;64.59;98630.72;5063112;28;20412;-73
2023/03/10 00:32:03;;;;;;;40.85;25.63;;;;;;;11.35;64.83;98631.91;5052338;28;20063;-73
2023/03/10 00:34:30;;;;;;;46.72;27.60;;;;;;;11.40;64.31;98628.03;5051991;28;20035;-73
2023/03/10 00:36:55;;;;;;;40.83;25.27;;;;;;;11.13;64.58;98630.56;5052212;28;20060;-73
2023/03/10 00:39:21;;;;;;;45.72;25.75;;;;;;;11.31;64.22;98637.41;5051973;28;20488;-73
2023/03/10 00:41:47;;;;;;;44.42;26.38;;;;;;;11.43;64.61;98644.09;5062890;28;20028;-73
2023/03/10 00:44:12;;;;;;;45.70;25.95;;;;;;;11.43;64.06;98639.31;5070875;28;20089;-73
2023/03/10 00:46:38;;;;;;;44.65;22.67;;;;;;;11.36;63.91;98641.94;5070767;28;20445;-73
2023/03/10 00:49:05;;;;;;;45.42;24.25;;;;;;;11.35;64.29;98641.13;5070555;28;20064;-73
2023/03/10 00:51:30;;;;;;;41.78;25.10;;;;;;;11.44;63.34;98642.91;5070556;28;20119;-73
2023/03/10 00:53:56;;;;;;;40.63;23.77;;;;;;;11.29;64.40;98645.38;5070541;28;20055;-73
2023/03/10 00:56:24;;;;;;;39.00;23.92;;;;;;;11.19;64.65;98643.91;5059761;28;20032;-73
2023/03/10 00:58:54;;;;;;;43.72;24.50;;;;;;;11.28;64.45;98652.13;5051749;28;20052;-73
2023/03/10 01:01:26;;;;;;;41.28;23.40;;;;;;;11.26;64.35;98657.28;5051948;28;20058;-74
2023/03/10 01:03:53;;;;;;;35.47;20.05;;;;;;;11.35;64.14;98649.53;5061902;28;20029;-73
2023/03/10 01:06:20;;;;;;;29.35;17.48;;;;;;;11.56;63.54;98653.22;5071585;28;20056;-73
2023/03/10 01:08:45;;;;;;;30.88;18.02;;;;;;;11.74;62.93;98650.88;5071765;28;20028;-73
2023/03/10 01:11:14;;;;;;;28.60;19.67;;;;;;;11.76;63.06;98657.72;5069606;28;20040;-74
2023/03/10 01:13:39;;;;;;;33.42;20.58;;;;;;;11.77;63.16;98650.16;5070099;28;20029;-74
2023/03/10 01:16:05;;;;;;;36.47;22.45;;;;;;;11.60;64.33;98649.34;5071351;28;20045;-74
2023/03/10 01:18:31;;;;;;;36.47;22.70;;;;;;;11.33;64.92;98640.66;5071372;28;20025;-74
2023/03/10 01:20:56;;;;;;;39.35;21.40;;;;;;;11.46;64.43;98649.78;5054100;28;20044;-73
2023/03/10 01:23:24;;;;;;;31.48;20.98;;;;;;;11.41;65.03;98640.84;5051407;28;20021;-73
2023/03/10 01:25:50;;;;;;;26.10;14.68;;;;;;;11.52;64.59;98641.94;5050577;28;20029;-74
2023/03/10 01:28:17;;;;;;;21.63;15.43;;;;;;;11.58;64.14;98643.28;5049919;28;20021;-73
2023/03/10 01:30:44;;;;;;;12.65;8.90;;;;;;;11.62;63.27;98635.78;5049922;28;20025;-74
2023/03/10 01:33:10;;;;;;;15.50;10.30;;;;;;;11.60;63.42;98637.31;5066298;28;20036;-73
2023/03/10 01:35:36;;;;;;;7.13;5.35;;;;;;;11.63;62.89;98631.00;5068950;28;20028;-72
2023/03/10 01:38:03;;;;;;;6.53;4.53;;;;;;;11.63;62.35;98629.00;5049868;28;20128;-73
2023/03/10 01:40:29;;;;;;;5.90;3.42;;;;;;;11.82;61.50;98630.25;5051093;28;20029;-73
2023/03/10 01:43:19;;;;;;;6.13;3.75;;;;;;;11.91;61.62;98625.25;5051319;28;20035;-74
2023/03/10 01:45:44;;;;;;;5.13;3.47;;;;;;;12.09;61.01;98630.50;5067300;28;20029;-73
2023/03/10 01:48:11;;;;;;;7.30;4.70;;;;;;;12.08;61.30;98629.69;5070984;28;20085;-74
2023/03/10 01:50:37;;;;;;;6.80;5.15;;;;;;;12.10;61.17;98625.69;5069543;28;20039;-74
2023/03/10 01:53:03;;;;;;;10.98;5.10;;;;;;;12.18;60.67;98633.09;5053554;28;20029;-73
2023/03/10 01:55:42;;;;;;;7.30;5.75;;;;;;;12.24;60.54;98625.22;5050952;28;20091;-74
2023/03/10 01:58:09;;;;;;;16.52;7.03;;;;;;;12.09;60.83;98622.09;5050998;28;20025;-73
2023/03/10 02:00:35;;;;;;;10.68;5.80;;;;;;;12.12;60.74;98620.53;5066935;28;20036;-74
2023/03/10 02:03:21;;;;;;;10.90;5.50;;;;;;;12.04;60.66;98627.97;5069595;28;20074;-74
2023/03/10 02:05:52;;;;;;;11.02;4.78;;;;;;;11.85;61.35;98626.72;5070762;28;20032;-73
2023/03/10 02:08:20;;;;;;;10.45;5.53;;;;;;;11.73;61.82;98630.44;5070813;28;20060;-73
2023/03/10 02:10:47;;;;;;;18.10;9.23;;;;;;;11.42;62.68;98640.50;5069764;28;20376;-73
2023/03/10 02:13:12;;;;;;;18.00;11.90;;;;;;;11.09;64.25;98642.44;5069263;28;20025;-73
2023/03/10 02:15:39;;;;;;;16.95;11.85;;;;;;;11.34;63.60;98641.47;5070549;28;20474;-73
2023/03/10 02:18:07;;;;;;;17.27;11.00;;;;;;;11.51;63.22;98641.13;5070884;28;20031;-73
2023/03/10 02:20:56;;;;;;;17.80;11.80;;;;;;;11.31;63.20;98642.22;5070672;28;20052;-73
2023/03/10 02:23:34;;;;;;;21.88;13.90;;;;;;;11.18;63.82;98645.09;5072809;28;20047;-74
2023/03/10 02:26:16;;;;;;;15.13;10.57;;;;;;;11.19;64.03;98651.47;5068203;28;20024;-73
2023/03/10 02:28:42;;;;;;;17.90;10.85;;;;;;;10.91;65.34;98655.16;5061079;28;20020;-74
2023/03/10 02:31:08;;;;;;;19.20;11.85;;;;;;;10.34;66.38;98655.09;5074513;28;20024;-74
2023/03/10 02:33:35;;;;;;;20.52;11.35;;;;;;;9.40;71.02;98655.75;5074611;28;20028;-74
2023/03/10 02:36:12;;;;;;;19.50;11.73;;;;;;;9.88;68.91;98664.47;5073043;28;20380;-73
2023/03/10 02:38:37;;;;;;;16.67;11.20;;;;;;;9.82;69.03;98660.28;5074410;28;20028;-73
2023/03/10 02:41:14;;;;;;;19.65;11.52;;;;;;;10.11;68.06;98666.78;5074279;28;20027;-74
2023/03/10 02:43:40;;;;;;;26.75;15.73;;;;;;;9.97;68.59;98667.97;5066620;28;20024;-73
2023/03/10 02:46:07;;;;;;;18.77;12.10;;;;;;;10.14;68.10;98668.88;5072849;28;20074;-74
2023/03/10 02:48:35;;;;;;;18.13;11.00;;;;;;;10.30;68.40;98673.75;5074296;28;20024;-73
2023/03/10 02:51:03;;;;;;;16.83;11.15;;;;;;;10.55;67.35;98688.47;5074083;28;20032;-73
2023/03/10 02:53:29;;;;;;;15.45;10.68;;;;;;;10.64;66.40;98680.78;5074124;28;20020;-73
2023/03/10 02:55:55;;;;;;;18.38;11.10;;;;;;;10.72;65.87;98689.38;5074031;28;20097;-73
2023/03/10 02:58:22;;;;;;;16.08;11.02;;;;;;;10.77;66.50;98689.94;5072402;28;20119;-74
2023/03/10 03:00:49;;;;;;;15.82;10.07;;;;;;;10.84;65.90;98680.94;5061583;28;20411;-73
2023/03/10 03:03:17;;;;;;;20.55;11.50;;;;;;;10.78;65.18;98677.59;5064362;28;20024;-74
2023/03/10 03:05:43;;;;;;;21.48;12.32;;;;;;;10.18;66.39;98672.59;5073902;28;20021;-73
2023/03/10 03:08:09;;;;;;;24.02;13.75;;;;;;;9.68;68.29;98667.03;5072514;28;20588;-73
2023/03/10 03:10:36;;;;;;;19.63;11.80;;;;;;;10.10;68.09;98663.19;5071633;28;20153;-74
2023/03/10 03:13:02;;;;;;;19.77;13.32;;;;;;;10.21;67.63;98657.13;5070053;28;20052;-73
2023/03/10 03:15:27;;;;;;;23.00;12.55;;;;;;;10.14;67.96;98654.91;5073500;28;20589;-73
2023/03/10 03:17:53;;;;;;;15.95;11.55;;;;;;;10.31;67.17;98650.22;5060273;28;20059;-74
2023/03/10 03:20:20;;;;;;;16.70;11.48;;;;;;;10.43;66.55;98654.97;5053427;28;20021;-72
2023/03/10 03:22:46;;;;;;;17.90;12.32;;;;;;;10.36;66.42;98661.97;5073993;28;20035;-73
2023/03/10 03:25:15;;;;;;;24.77;12.70;;;;;;;9.80;67.97;98679.38;5073503;28;20018;-73
2023/03/10 03:27:42;;;;;;;20.40;13.15;;;;;;;9.56;68.35;98669.84;5071365;28;20029;-73
2023/03/10 03:30:13;;;;;;;22.23;14.95;;;;;;;9.54;69.05;98661.00;5072030;28;20110;-73
2023/03/10 03:32:38;;;;;;;20.65;14.50;;;;;;;9.58;69.13;98667.50;5054075;28;20112;-74
2023/03/10 03:35:09;;;;;;;26.58;16.55;;;;;;;9.38;70.08;98658.06;5063910;28;20462;-73
2023/03/10 03:37:35;;;;;;;20.95;14.50;;;;;;;9.68;68.85;98661.47;5072028;28;20062;-73
2023/03/10 03:40:00;;;;;;;19.90;15.02;;;;;;;9.80;68.45;98657.84;5073653;28;20377;-74
2023/03/10 03:42:26;;;;;;;26.77;16.02;;;;;;;9.81;68.28;98669.84;5072602;28;20307;-73
2023/03/10 03:44:51;;;;;;;35.88;18.73;;;;;;;9.93;67.91;98660.63;5071109;28;20051;-74
2023/03/10 03:47:17;;;;;;;25.38;17.35;;;;;;;10.02;67.84;98661.31;5073034;28;20069;-74
2023/03/10 03:49:42;;;;;;;27.45;17.42;;;;;;;10.09;67.07;98658.75;5071805;28;20091;-73
2023/03/10 03:52:08;;;;;;;38.05;18.70;;;;;;;10.10;67.69;98654.81;5067181;28;20085;-74
2023/03/10 03:54:34;;;;;;;21.27;14.90;;;;;;;9.58;69.03;98659.13;5071658;28;20024;-73
2023/03/10 03:57:00;;;;;;;20.67;13.27;;;;;;;9.18;71.52;98654.19;5071633;28;20031;-75
2023/03/10 03:59:25;;;;;;;17.92;14.85;;;;;;;9.60;70.90;98662.38;5071245;28;20483;-73
2023/03/10 04:01:50;;;;;;;30.85;17.80;;;;;;;9.39;72.50;98659.69;5059433;28;20075;-73
2023/03/10 04:04:16;;;;;;;26.45;17.40;;;;;;;9.61;71.86;98663.22;5052836;28;20029;-74
2023/03/10 04:06:42;;;;;;;27.92;16.92;;;;;;;9.78;71.08;98665.75;5062070;28;20479;-74
2023/03/10 04:09:09;;;;;;;24.08;15.57;;;;;;;9.80;70.69;98663.44;5069304;28;20025;-73
2023/03/10 04:11:35;;;;;;;28.95;17.45;;;;;;;9.53;71.54;98662.97;5051297;28;20053;-74
2023/03/10 04:14:00;;;;;;;19.67;14.52;;;;;;;9.52;72.26;98663.28;5060309;28;20030;-73
2023/03/10 04:16:26;;;;;;;24.58;17.05;;;;;;;9.06;73.61;98663.34;5072359;28;20105;-73
2023/03/10 04:18:51;;;;;;;24.42;15.98;;;;;;;9.27;73.66;98672.47;5071771;28;20024;-72
2023/03/10 04:21:17;;;;;;;23.33;16.27;;;;;;;9.12;73.92;98676.72;5072340;28;20020;-73
2023/03/10 04:23:42;;;;;;;25.55;16.63;;;;;;;9.30;72.83;98673.75;5069414;28;20028;-74
2023/03/10 04:26:08;;;;;;;21.67;15.27;;;;;;;9.30;73.40;98684.94;5072366;28;20487;-73
2023/03/10 04:28:34;;;;;;;22.52;16.65;;;;;;;9.45;72.75;98671.44;5070349;28;20082;-73
2023/03/10 04:30:59;;;;;;;30.83;18.05;;;;;;;9.47;72.32;98671.91;5053525;28;20537;-72
2023/03/10 04:33:25;;;;;;;21.70;16.55;;;;;;;9.18;73.05;98670.94;5051872;28;20033;-73
2023/03/10 04:35:51;;;;;;;23.35;16.27;;;;;;;9.19;73.24;98667.00;5052394;28;20032;-73
2023/03/10 04:38:17;;;;;;;30.60;19.20;;;;;;;8.63;75.67;98666.22;5051663;28;20403;-73
2023/03/10 04:40:43;;;;;;;27.17;18.90;;;;;;;8.58;76.48;98672.00;5050754;28;20045;-74
2023/03/10 04:43:08;;;;;;;50.55;27.10;;;;;;;8.42;77.58;98669.81;5057168;28;20399;-73
2023/03/10 04:45:34;;;;;;;68.20;33.28;;;;;;;8.68;77.09;98665.19;5071615;28;20055;-73
2023/03/10 04:47:59;;;;;;;74.30;39.75;;;;;;;8.83;76.28;98661.78;5071781;28;20020;-73
2023/03/10 04:50:25;;;;;;;54.55;32.67;;;;;;;8.87;76.04;98656.34;5071945;28;20031;-73
2023/03/10 04:52:50;;;;;;;57.78;29.70;;;;;;;9.02;75.61;98657.63;5069666;28;20036;-73
2023/03/10 04:55:16;;;;;;;56.60;28.30;;;;;;;9.31;74.73;98658.63;5070518;28;20089;-74
2023/03/10 04:57:42;;;;;;;51.28;25.65;;;;;;;9.51;73.66;98654.13;5057680;28;20162;-73
2023/03/10 05:00:11;;;;;;;50.65;25.42;;;;;;;9.62;72.54;98660.06;5071571;28;20056;-73
2023/03/10 05:02:38;;;;;;;44.50;24.95;;;;;;;9.79;71.84;98661.00;5059537;28;20024;-73
2023/03/10 05:05:04;;;;;;;60.97;29.50;;;;;;;9.52;72.96;98658.53;5050398;28;20411;-74
2023/03/10 05:07:29;;;;;;;58.50;28.98;;;;;;;9.65;72.26;98667.75;5051464;28;20170;-73
2023/03/10 05:09:55;;;;;;;83.20;40.83;;;;;;;9.38;73.35;98656.06;5053368;28;20024;-74
2023/03/10 05:12:20;;;;;;;74.28;36.75;;;;;;;9.72;72.82;98669.97;5057703;28;20025;-74
2023/03/10 05:14:46;;;;;;;76.72;35.05;;;;;;;9.73;72.90;98656.81;5050113;28;20048;-73
2023/03/10 05:17:11;;;;;;;69.93;31.85;;;;;;;9.75;72.27;98658.09;5070175;28;20103;-73
2023/03/10 05:19:37;;;;;;;48.22;29.60;;;;;;;9.55;72.26;98657.84;5069583;28;20457;-74
2023/03/10 05:22:05;;;;;;;48.20;22.92;;;;;;;9.36;73.27;98647.25;5070589;28;20095;-73
2023/03/10 05:24:30;;;;;;;37.80;20.50;;;;;;;9.58;72.39;98664.72;5071388;28;20090;-73
2023/03/10 05:26:56;;;;;;;43.17;23.08;;;;;;;9.79;71.91;98659.00;5069296;28;20430;-73
2023/03/10 05:29:22;;;;;;;56.00;25.33;;;;;;;9.83;71.66;98670.31;5058426;28;20142;-73
2023/03/10 05:31:47;;;;;;;49.00;29.15;;;;;;;9.70;72.90;98669.47;5068267;28;20029;-74
2023/03/10 05:34:13;;;;;;;40.38;23.80;;;;;;;9.36;75.34;98657.59;5071327;28;20031;-74
2023/03/10 05:36:39;;;;;;;38.03;22.33;;;;;;;9.74;73.64;98664.84;5072997;28;20020;-73
2023/03/10 05:39:05;;;;;;;58.08;23.95;;;;;;;9.91;72.47;98661.00;5076965;28;20548;-73
2023/03/10 05:41:31;;;;;;;48.22;26.30;;;;;;;9.84;73.34;98660.75;5061729;28;20029;-75
2023/03/10 05:43:57;;;;;;;48.78;23.65;;;;;;;9.64;74.61;98649.34;5065338;28;20021;-70
2023/03/10 05:46:23;;;;;;;32.25;22.42;;;;;;;9.60;75.10;98642.03;5049686;28;20109;-71
2023/03/10 05:48:49;;;;;;;31.15;20.13;;;;;;;9.67;75.04;98639.47;5049112;28;20025;-70
2023/03/10 05:51:15;;;;;;;26.08;18.45;;;;;;;9.73;75.29;98645.63;5048997;28;20118;-70
2023/03/10 05:53:40;;;;;;;26.92;16.75;;;;;;;9.80;74.95;98635.50;5049113;28;20074;-71
2023/03/10 05:56:12;;;;;;;28.70;17.65;;;;;;;9.86;74.45;98636.06;5047728;28;20031;-71
2023/03/10 05:58:38;;;;;;;29.75;17.20;;;;;;;9.70;75.88;98630.38;5071372;28;20020;-73
2023/03/10 06:01:04;;;;;;;53.08;19.45;;;;;;;9.76;75.00;98629.00;5064435;28;20563;-73
2023/03/10 06:03:30;;;;;;;33.67;17.98;;;;;;;9.80;75.65;98629.13;5053341;28;20032;-71
2023/03/10 06:05:57;;;;;;;34.42;17.33;;;;;;;9.85;75.14;98631.66;5052211;28;20435;-74
2023/03/10 06:08:23;;;;;;;23.58;16.95;;;;;;;9.93;75.35;98622.34;5061738;28;20029;-74
2023/03/10 06:10:49;;;;;;;295.17;132.70;;;;;;;9.99;74.81;98628.50;5070041;28;20074;-68
2023/03/10 06:13:18;;;;;;;392.55;199.77;;;;;;;10.14;74.91;98638.16;5059776;28;20786;-71
2023/03/10 06:15:57;;;;;;;355.80;146.98;;;;;;;10.30;74.58;98631.81;5060235;28;20502;-69
2023/03/10 06:18:23;;;;;;;98.47;40.47;;;;;;;10.39;74.68;98624.09;5052537;28;20017;-71
2023/03/10 06:20:49;;;;;;;69.80;30.88;;;;;;;10.44;74.69;98615.47;5054763;28;20024;-68
2023/03/10 06:23:16;;;;;;;41.97;24.63;;;;;;;10.70;74.34;98619.00;5056894;28;20039;-68
2023/03/10 06:25:41;;;;;;;33.35;21.98;;;;;;;10.91;73.43;98613.97;5057982;28;20028;-68
2023/03/10 06:28:07;;;;;;;35.60;17.63;;;;;;;10.89;73.82;98619.13;5057326;28;20109;-68
2023/03/10 06:30:33;;;;;;;26.25;18.35;;;;;;;10.98;74.01;98621.78;5061551;28;20029;-68
2023/03/10 06:32:59;;;;;;;26.42;19.15;;;;;;;11.14;73.77;98627.38;5060262;28;20028;-70
2023/03/10 06:35:26;;;;;;;24.95;17.88;;;;;;;11.30;73.99;98626.59;5062143;28;20107;-72
2023/03/10 06:37:54;;;;;;;21.17;15.95;;;;;;;11.38;73.76;98631.19;5056087;28;20591;-70
2023/03/10 06:40:20;;;;;;;26.13;16.83;;;;;;;11.52;73.81;98622.34;5065730;28;20573;-69
2023/03/10 06:42:45;;;;;;;34.55;21.15;;;;;;;11.37;75.23;98607.97;5071470;28;20024;-69
2023/03/10 06:45:16;;;;;;;28.85;18.23;;;;;;;11.43;74.39;98599.31;5062885;28;20032;-69
2023/03/10 06:47:41;;;;;;;;;;;;;;;11.40;75.91;98611.22;5068379;28;20032;-72
2023/03/10 06:50:07;;;;;;;25.92;15.68;;;;;;;11.63;74.50;98601.00;5069827;28;20045;-69
2023/03/10 06:52:33;;;;;;;20.42;14.55;;;;;;;11.53;75.76;98601.56;5069349;28;20205;-70
2023/03/10 06:55:00;;;;;;;23.75;15.32;;;;;;;11.39;77.15;98599.19;5054889;28;20040;-69
2023/03/10 06:57:26;;;;;;;20.90;14.70;;;;;;;11.42;77.54;98608.88;5064222;28;20081;-69
2023/03/10 06:59:52;;;;;;;26.67;17.17;;;;;;;11.43;77.63;98599.31;5068622;28;20036;-70
2023/03/10 07:02:18;;;;;;;31.02;20.40;;;;;;;11.37;78.09;98591.19;5065097;28;20533;-71
2023/03/10 07:04:45;;;;;;;32.85;19.23;;;;;;;11.56;78.04;98595.22;5066272;28;20033;-70
2023/03/10 07:07:11;;;;;;;20.10;14.82;;;;;;;11.58;77.18;98587.25;5066176;28;20404;-70
2023/03/10 07:09:37;;;;;;;23.17;15.68;;;;;;;11.68;75.73;98579.47;5061029;28;20437;-72
2023/03/10 07:12:03;;;;;;;24.60;16.42;;;;;;;11.87;74.72;98582.34;5064679;28;20032;-71
2023/03/10 07:14:28;;;;;;;26.65;14.60;;;;;;;12.02;74.55;98580.72;5068490;28;20024;-70
2023/03/10 07:16:54;;;;;;;38.40;19.48;;;;;;;12.29;74.14;98589.28;5067808;28;20028;-71
2023/03/10 07:19:19;;;;;;;33.65;17.60;;;;;;;12.57;72.64;98593.06;5069000;28;20469;-71
2023/03/10 07:21:45;;;;;;;240.25;70.45;;;;;;;12.83;71.57;98588.75;5068677;28;20490;-71
2023/03/10 07:24:10;;;;;;;24.55;12.85;;;;;;;12.85;68.88;98592.81;5068737;28;20479;-72
2023/03/10 07:26:36;;;;;;;103.47;33.80;;;;;;;13.00;68.95;98596.66;5065121;28;20028;-72
2023/03/10 07:29:03;;;;;;;78.47;38.15;;;;;;;13.01;70.53;98598.28;5072023;28;20043;-70
2023/03/10 07:31:29;;;;;;;13.65;8.82;;;;;;;12.95;69.82;98596.16;5069819;28;20063;-70
2023/03/10 07:33:54;;;;;;;11.80;8.45;;;;;;;12.97;69.92;98611.47;5069149;28;20375;-71
2023/03/10 07:36:21;;;;;;;11.55;7.32;;;;;;;12.96;70.06;98609.00;5086370;28;20036;-71
2023/03/10 07:38:48;;;;;;;11.50;7.82;;;;;;;13.01;70.04;98615.13;5071010;28;20032;-71
2023/03/10 07:41:17;;;;;;;11.15;7.53;;;;;;;12.99;70.72;98619.50;5068778;28;20028;-70
2023/03/10 07:43:42;;;;;;;14.77;9.43;;;;;;;12.93;70.27;98613.41;5071745;28;20029;-69
2023/03/10 07:46:10;;;;;;;11.60;8.25;;;;;;;13.00;70.31;98610.69;5071409;28;20094;-69
2023/03/10 07:48:37;;;;;;;13.18;9.25;;;;;;;12.99;69.47;98606.28;5068012;28;20020;-70
2023/03/10 07:51:02;;;;;;;17.00;8.80;;;;;;;13.02;68.95;98615.97;5068841;28;20063;-69
2023/03/10 07:53:32;;;;;;;16.27;7.28;;;;;;;13.03;67.99;98609.97;5070127;28;20024;-70
2023/03/10 07:55:58;;;;;;;10.57;7.97;;;;;;;13.12;68.82;98611.72;5071645;28;20032;-69
2023/03/10 07:58:23;;;;;;;10.35;7.05;;;;;;;13.18;70.08;98599.00;5071115;28;20030;-69
2023/03/10 08:00:54;;;;;;;10.20;6.90;;;;;;;13.16;69.55;98598.56;5071509;28;20495;-69
2023/03/10 08:03:20;;;;;;;10.07;7.18;;;;;;;13.09;70.15;98602.03;5072089;28;20068;-69
2023/03/10 08:05:46;;;;;;;11.80;8.65;;;;;;;13.00;70.88;98593.88;5070952;28;20032;-69
2023/03/10 08:08:11;;;;;;;10.55;7.47;;;;;;;13.09;69.41;98595.63;5066890;28;20078;-69
2023/03/10 08:10:37;;;;;;;11.60;7.65;;;;;;;13.10;68.68;98586.00;5069022;28;20384;-69
2023/03/10 08:13:02;;;;;;;14.43;7.30;;;;;;;12.99;69.97;98585.84;5070699;28;20503;-69
2023/03/10 08:15:31;;;;;;;12.35;8.30;;;;;;;13.05;67.96;98585.16;5070761;28;20069;-69
2023/03/10 08:17:57;;;;;;;11.07;8.65;;;;;;;13.02;68.93;98585.06;5068360;28;20157;-70
2023/03/10 08:20:23;;;;;;;21.73;13.60;;;;;;;13.06;69.50;98586.78;5068287;28;20144;-70
2023/03/10 08:22:51;;;;;;;16.02;9.57;;;;;;;12.99;68.42;98581.00;5068874;28;20062;-70
2023/03/10 08:25:16;;;;;;;19.35;11.88;;;;;;;13.04;68.76;98583.53;5084724;28;20024;-69
2023/03/10 08:27:42;;;;;;;19.20;12.15;;;;;;;13.26;68.45;98578.25;5070590;28;20028;-69
2023/03/10 08:30:08;;;;;;;26.35;12.25;;;;;;;13.27;67.48;98588.34;5066923;28;20056;-69
2023/03/10 08:32:33;;;;;;;20.23;11.02;;;;;;;13.43;67.21;98582.56;5068684;28;20031;-72
2023/03/10 08:34:59;;;;;;;19.10;10.57;;;;;;;13.45;67.20;98576.63;5067570;28;20025;-72
2023/03/10 08:37:24;;;;;;;18.83;9.68;;;;;;;13.36;67.53;98559.16;5069565;28;20033;-72
2023/03/10 08:39:55;;;;;;;16.35;9.60;;;;;;;13.39;67.79;98564.03;5067237;28;20507;-71
2023/03/10 08:42:20;;;;;;;17.08;9.20;;;;;;;13.43;68.57;98564.91;5069874;28;20035;-71
2023/03/10 08:44:46;;;;;;;20.70;9.00;;;;;;;13.62;67.30;98578.09;5069064;28;20531;-72
2023/03/10 08:47:11;;;;;;;12.10;8.95;;;;;;;13.69;65.33;98578.19;5067316;28;20025;-72
2023/03/10 08:49:37;;;;;;;14.05;8.57;;;;;;;13.66;66.05;98578.94;5066214;28;20024;-72
2023/03/10 08:52:03;;;;;;;12.82;9.05;;;;;;;13.79;65.17;98568.31;5067402;28;20551;-70
2023/03/10 08:54:29;;;;;;;14.98;9.93;;;;;;;13.81;66.58;98570.72;5069034;28;20028;-72
2023/03/10 08:56:55;;;;;;;13.82;9.05;;;;;;;13.99;66.57;98565.34;5069872;28;20419;-72
2023/03/10 08:59:20;;;;;;;15.75;9.50;;;;;;;14.32;64.74;98560.97;5067649;28;20032;-70
2023/03/10 09:01:46;;;;;;;10.65;7.70;;;;;;;14.36;62.81;98547.78;5068131;28;20025;-68
2023/03/10 09:04:12;;;;;;;14.18;7.38;;;;;;;14.38;62.95;98542.59;5064178;28;20104;-69
2023/03/10 09:06:38;;;;;;;10.77;7.38;;;;;;;14.43;63.15;98538.63;5064614;28;20406;-69
2023/03/10 09:09:05;;;;;;;11.57;6.25;;;;;;;14.52;61.79;98541.13;5067050;28;20131;-68
2023/03/10 09:11:33;;;;;;;10.25;8.05;;;;;;;14.57;61.61;98537.94;5065429;28;20032;-72
2023/03/10 09:14:00;;;;;;;13.27;7.32;;;;;;;14.76;61.17;98525.72;5059424;28;20032;-69
2023/03/10 09:16:27;;;;;;;17.48;9.60;;;;;;;14.87;61.31;98523.03;5069314;28;20064;-69
2023/03/10 09:18:55;;;;;;;14.35;8.15;;;;;;;14.95;59.59;98516.25;5070959;28;20028;-71
2023/03/10 09:21:25;;;;;;;17.65;8.10;;;;;;;14.99;60.49;98508.66;5065646;28;20047;-69
2023/03/10 09:23:52;;;;;;;13.95;8.32;;;;;;;15.13;60.10;98512.81;5062965;28;20419;-69
2023/03/10 09:26:18;;;;;;;17.23;10.15;;;;;;;15.28;59.57;98500.44;5063918;28;20054;-69
2023/03/10 09:28:44;;;;;;;13.38;9.07;;;;;;;15.22;59.20;98495.56;5068986;28;20516;-69
2023/03/10 09:31:17;;;;;;;14.75;10.30;;;;;;;15.41;59.04;98492.50;5066771;28;20557;-69
2023/03/10 09:33:43;;;;;;;17.65;11.68;;;;;;;15.57;59.27;98486.56;5064535;28;20028;-69
2023/03/10 09:36:09;;;;;;;19.05;11.48;;;;;;;15.72;61.05;98483.81;5068868;28;20093;-70
2023/03/10 09:38:35;;;;;;;21.92;11.32;;;;;;;16.09;58.11;98474.38;5070590;28;20090;-69
2023/03/10 09:41:22;;;;;;;17.33;11.32;;;;;;;16.19;58.82;98472.78;5063155;28;20024;-69
2023/03/10 09:44:25;;;;;;;21.95;12.50;;;;;;;16.07;57.82;98468.31;5061033;28;20025;-69
2023/03/10 09:46:56;;;;;;;21.08;13.50;;;;;;;16.05;58.74;98470.72;5066417;28;20029;-69
2023/03/10 09:49:34;;;;;;;22.48;12.20;;;;;;;16.06;57.85;98457.41;5080181;28;20052;-69
2023/03/10 09:52:14;;;;;;;24.55;12.82;;;;;;;16.17;58.86;98454.63;5067219;28;20020;-71
2023/03/10 09:54:56;;;;;;;;;;;;;;;16.25;57.64;98459.91;5061702;28;20051;-68
2023/03/10 09:57:22;;;;;;;25.23;14.02;;;;;;;16.13;56.92;98455.44;5065266;28;19969;-69
2023/03/10 09:59:52;;;;;;;20.20;12.73;;;;;;;16.38;58.82;98448.25;5068012;28;20020;-69
2023/03/10 10:02:42;;;;;;;19.20;12.48;;;;;;;16.50;56.77;98441.41;5060275;28;23808;-69
2023/03/10 10:05:31;;;;;;;16.10;11.60;;;;;;;16.63;57.52;98444.69;5064007;28;20431;-70
2023/03/10 10:07:59;;;;;;;17.45;11.25;;;;;;;16.63;56.37;98439.81;5065804;28;20848;-70
2023/03/10 10:10:37;;;;;;;19.15;10.68;;;;;;;16.67;56.35;98428.53;5065585;28;20107;-70
2023/03/10 10:13:12;;;;;;;20.05;10.60;;;;;;;16.69;55.94;98428.94;5063742;28;20029;-70
2023/03/10 10:15:43;;;;;;;11.70;7.75;;;;;;;16.84;54.74;98424.13;5067439;28;20419;-70
2023/03/10 10:18:12;;;;;;;22.02;9.75;;;;;;;16.89;54.66;98412.41;5064550;28;20032;-72
2023/03/10 10:20:47;;;;;;;17.92;9.63;;;;;;;16.95;55.52;98396.69;5063840;28;20119;-72
2023/03/10 10:23:23;;;;;;;15.43;8.60;;;;;;;16.79;55.05;98396.28;5069883;28;20036;-67
2023/03/10 10:25:49;;;;;;;7.60;6.32;;;;;;;16.72;53.85;98394.28;5063748;28;20035;-68
2023/03/10 10:28:48;;;;;;;7.28;5.72;;;;;;;16.66;53.58;98387.41;5065044;28;20500;-69
2023/03/10 10:31:18;;;;;;;7.88;6.20;;;;;;;16.62;55.49;98378.94;5058093;28;20051;-70
2023/03/10 10:34:02;;;;;;;8.60;6.03;;;;;;;16.52;54.13;98368.44;5061075;28;20458;-70
2023/03/10 10:36:50;;;;;;;9.15;5.03;;;;;;;16.49;54.03;98360.78;5060686;28;20083;-69
2023/03/10 10:39:33;;;;;;;11.55;5.72;;;;;;;16.51;54.99;98367.66;5059856;28;20059;-68
2023/03/10 10:42:23;;;;;;;8.15;4.60;;;;;;;16.38;54.75;98355.94;5058331;28;20744;-70
2023/03/10 10:44:52;;;;;;;12.13;5.07;;;;;;;16.35;55.85;98334.19;5060201;28;20079;-69
2023/03/10 10:47:30;;;;;;;79.63;60.50;;;;;;;16.34;54.16;98337.38;5062089;28;20024;-71
2023/03/10 10:50:32;;;;;;;472.15;309.65;;;;;;;16.50;54.93;98322.88;5062225;28;20126;-69
2023/03/10 10:53:23;;;;;;;461.80;300.88;;;;;;;16.42;54.62;98314.44;5019044;28;20052;-70
2023/03/10 10:56:01;;;;;;;1043.57;603.30;;;;;;;16.59;54.65;98320.47;5063859;28;20025;-70
2023/03/10 10:58:33;;;;;;;760.10;421.58;;;;;;;16.73;54.89;98307.56;5077423;28;20039;-69
2023/03/10 11:01:05;;;;;;;504.10;334.02;;;;;;;16.82;54.57;98299.47;5059704;28;20032;-68
2023/03/10 11:03:37;;;;;;;713.13;470.42;;;;;;;16.81;54.39;98297.88;5058678;28;20410;-70
2023/03/10 11:06:12;;;;;;;412.30;259.13;;;;;;;16.90;53.58;98291.78;5063282;28;20032;-69
2023/03/10 11:08:41;;;;;;;15.40;8.80;;;;;;;16.79;53.38;98291.81;5060731;28;20060;-69
2023/03/10 11:11:19;;;;;;;8.30;5.13;;;;;;;16.76;54.67;98278.50;5060056;28;20035;-68
2023/03/10 11:14:20;;;;;;;9.95;4.97;;;;;;;16.74;55.30;98280.94;5063902;28;20032;-69
2023/03/10 11:17:00;;;;;;;9.35;4.30;;;;;;;16.75;55.52;98271.25;5062973;28;20055;-68
2023/03/10 11:20:04;;;;;;;7.10;5.25;;;;;;;16.77;55.01;98277.28;5062811;28;20067;-68
2023/03/10 11:22:52;;;;;;;10.35;5.15;;;;;;;16.86;54.47;98274.84;5060935;28;20119;-69
2023/03/10 11:25:24;;;;;;;12.00;6.72;;;;;;;16.80;53.93;98268.81;5061081;28;20036;-69
2023/03/10 11:28:08;;;;;;;10.00;6.72;;;;;;;16.89;54.89;98265.56;5057091;28;20031;-70